sensor_id;sensor_type;location;lat;lon;timestamp;P1;durP1;ratioP1;P2;durP2;ratioP2
11443;SDS011;5778;47.856;12.154;2023-05-20T00:00:37;11.67;;;10.47;;
11443;SDS011;5778;47.856;12.154;2023-05-20T00:03:03;10.43;;;9.43;;
11443;SDS011;5778;47.856;12.154;2023-05-20T00:05:32;11.50;;;10.23;;
11443;SDS011;5778;47.856;12.154;2023-05-20T00:07:59;12.50;;;11.20;;
11443;SDS011;5778;47.856;12.154;2023-05-20T00:10:28;11.70;;;10.60;;
11443;SDS011;5778;47.856;12.154;2023-05-20T00:12:55;13.67;;;11.43;;
11443;SDS011;5778;47.856;12.154;2023-05-20T00:15:22;12.73;;;11.13;;
11443;SDS011;5778;47.856;12.154;2023-05-20T00:17:49;11.60;;;10.50;;
11443;SDS011;5778;47.856;12.154;2023-05-20T00:20:16;10.70;;;9.80;;
11443;SDS011;5778;47.856;12.154;2023-05-20T00:22:45;10.30;;;9.30;;
11443;SDS011;5778;47.856;12.154;2023-05-20T00:25:11;11.10;;;9.83;;
11443;SDS011;5778;47.856;12.154;2023-05-20T00:27:39;10.47;;;9.47;;
11443;SDS011;5778;47.856;12.154;2023-05-20T00:30:07;11.07;;;9.67;;
11443;SDS011;5778;47.856;12.154;2023-05-20T00:32:35;10.97;;;9.90;;
11443;SDS011;5778;47.856;12.154;2023-05-20T00:35:03;11.70;;;10.70;;
11443;SDS011;5778;47.856;12.154;2023-05-20T00:37:30;10.83;;;9.73;;
11443;SDS011;5778;47.856;12.154;2023-05-20T00:39:59;12.63;;;11.50;;
11443;SDS011;5778;47.856;12.154;2023-05-20T00:42:26;14.00;;;12.70;;
11443;SDS011;5778;47.856;12.154;2023-05-20T00:44:54;12.00;;;10.83;;
11443;SDS011;5778;47.856;12.154;2023-05-20T00:47:22;12.50;;;11.23;;
11443;SDS011;5778;47.856;12.154;2023-05-20T00:49:53;12.57;;;11.37;;
11443;SDS011;5778;47.856;12.154;2023-05-20T00:52:21;15.70;;;12.80;;
11443;SDS011;5778;47.856;12.154;2023-05-20T00:54:48;14.40;;;13.00;;
11443;SDS011;5778;47.856;12.154;2023-05-20T00:57:17;16.77;;;14.93;;
11443;SDS011;5778;47.856;12.154;2023-05-20T00:59:45;16.27;;;12.93;;
11443;SDS011;5778;47.856;12.154;2023-05-20T01:02:12;15.13;;;12.50;;
11443;SDS011;5778;47.856;12.154;2023-05-20T01:04:39;13.77;;;12.47;;
11443;SDS011;5778;47.856;12.154;2023-05-20T01:07:11;12.50;;;11.37;;
11443;SDS011;5778;47.856;12.154;2023-05-20T01:09:40;12.73;;;11.50;;
11443;SDS011;5778;47.856;12.154;2023-05-20T01:12:08;13.60;;;11.97;;
11443;SDS011;5778;47.856;12.154;2023-05-20T01:14:45;11.47;;;10.33;;
11443;SDS011;5778;47.856;12.154;2023-05-20T01:17:15;11.80;;;10.67;;
11443;SDS011;5778;47.856;12.154;2023-05-20T01:19:45;11.87;;;10.67;;
11443;SDS011;5778;47.856;12.154;2023-05-20T01:22:13;12.63;;;11.40;;
11443;SDS011;5778;47.856;12.154;2023-05-20T01:24:43;11.73;;;10.63;;
11443;SDS011;5778;47.856;12.154;2023-05-20T01:27:12;12.10;;;10.90;;
11443;SDS011;5778;47.856;12.154;2023-05-20T01:29:40;10.87;;;9.87;;
11443;SDS011;5778;47.856;12.154;2023-05-20T01:32:09;11.47;;;10.30;;
11443;SDS011;5778;47.856;12.154;2023-05-20T01:34:38;12.27;;;11.10;;
11443;SDS011;5778;47.856;12.154;2023-05-20T01:37:08;12.53;;;11.33;;
11443;SDS011;5778;47.856;12.154;2023-05-20T01:39:36;12.00;;;10.87;;
11443;SDS011;5778;47.856;12.154;2023-05-20T01:42:07;11.93;;;10.73;;
11443;SDS011;5778;47.856;12.154;2023-05-20T01:44:36;12.43;;;11.13;;
11443;SDS011;5778;47.856;12.154;2023-05-20T01:47:03;11.13;;;10.13;;
11443;SDS011;5778;47.856;12.154;2023-05-20T01:49:30;12.30;;;11.10;;
11443;SDS011;5778;47.856;12.154;2023-05-20T01:51:57;13.67;;;11.90;;
11443;SDS011;5778;47.856;12.154;2023-05-20T01:54:25;12.23;;;10.97;;
11443;SDS011;5778;47.856;12.154;2023-05-20T01:56:52;13.50;;;12.10;;
11443;SDS011;5778;47.856;12.154;2023-05-20T01:59:22;12.63;;;11.43;;
11443;SDS011;5778;47.856;12.154;2023-05-20T02:01:49;13.57;;;12.17;;
11443;SDS011;5778;47.856;12.154;2023-05-20T02:04:16;13.73;;;12.40;;
11443;SDS011;5778;47.856;12.154;2023-05-20T02:06:44;13.13;;;11.83;;
11443;SDS011;5778;47.856;12.154;2023-05-20T02:09:11;14.43;;;12.27;;
11443;SDS011;5778;47.856;12.154;2023-05-20T02:11:38;13.83;;;12.53;;
11443;SDS011;5778;47.856;12.154;2023-05-20T02:14:06;14.43;;;13.03;;
11443;SDS011;5778;47.856;12.154;2023-05-20T02:16:35;13.30;;;12.00;;
11443;SDS011;5778;47.856;12.154;2023-05-20T02:19:02;16.60;;;14.90;;
11443;SDS011;5778;47.856;12.154;2023-05-20T02:21:29;17.37;;;15.53;;
11443;SDS011;5778;47.856;12.154;2023-05-20T02:23:56;16.23;;;14.53;;
11443;SDS011;5778;47.856;12.154;2023-05-20T02:26:25;17.17;;;15.30;;
11443;SDS011;5778;47.856;12.154;2023-05-20T02:28:52;16.60;;;14.57;;
11443;SDS011;5778;47.856;12.154;2023-05-20T02:31:20;14.70;;;13.33;;
11443;SDS011;5778;47.856;12.154;2023-05-20T02:33:48;13.23;;;11.93;;
11443;SDS011;5778;47.856;12.154;2023-05-20T02:36:16;13.60;;;12.30;;
11443;SDS011;5778;47.856;12.154;2023-05-20T02:38:43;13.40;;;11.97;;
11443;SDS011;5778;47.856;12.154;2023-05-20T02:41:10;13.43;;;12.13;;
11443;SDS011;5778;47.856;12.154;2023-05-20T02:43:37;25.93;;;23.17;;
11443;SDS011;5778;47.856;12.154;2023-05-20T02:46:04;22.30;;;20.00;;
11443;SDS011;5778;47.856;12.154;2023-05-20T02:48:31;23.87;;;20.77;;
11443;SDS011;5778;47.856;12.154;2023-05-20T02:51:00;17.57;;;15.83;;
11443;SDS011;5778;47.856;12.154;2023-05-20T02:53:27;21.87;;;19.57;;
11443;SDS011;5778;47.856;12.154;2023-05-20T02:55:54;17.77;;;14.57;;
11443;SDS011;5778;47.856;12.154;2023-05-20T02:58:21;16.60;;;14.90;;
11443;SDS011;5778;47.856;12.154;2023-05-20T03:00:52;14.63;;;13.10;;
11443;SDS011;5778;47.856;12.154;2023-05-20T03:03:19;16.90;;;15.03;;
11443;SDS011;5778;47.856;12.154;2023-05-20T03:05:46;18.23;;;16.30;;
11443;SDS011;5778;47.856;12.154;2023-05-20T03:08:14;16.20;;;14.60;;
11443;SDS011;5778;47.856;12.154;2023-05-20T03:10:43;17.70;;;15.90;;
11443;SDS011;5778;47.856;12.154;2023-05-20T03:13:10;15.17;;;13.77;;
11443;SDS011;5778;47.856;12.154;2023-05-20T03:15:39;14.60;;;13.10;;
11443;SDS011;5778;47.856;12.154;2023-05-20T03:18:08;13.67;;;12.37;;
11443;SDS011;5778;47.856;12.154;2023-05-20T03:20:35;15.33;;;12.07;;
11443;SDS011;5778;47.856;12.154;2023-05-20T03:23:04;13.53;;;12.27;;
11443;SDS011;5778;47.856;12.154;2023-05-20T03:25:33;13.13;;;11.93;;
11443;SDS011;5778;47.856;12.154;2023-05-20T03:28:00;13.87;;;12.50;;
11443;SDS011;5778;47.856;12.154;2023-05-20T03:30:27;14.60;;;13.13;;
11443;SDS011;5778;47.856;12.154;2023-05-20T03:32:55;15.30;;;13.60;;
11443;SDS011;5778;47.856;12.154;2023-05-20T03:35:24;15.53;;;13.67;;
11443;SDS011;5778;47.856;12.154;2023-05-20T03:37:51;18.53;;;15.40;;
11443;SDS011;5778;47.856;12.154;2023-05-20T03:40:21;17.77;;;14.03;;
11443;SDS011;5778;47.856;12.154;2023-05-20T03:42:49;17.63;;;15.70;;
11443;SDS011;5778;47.856;12.154;2023-05-20T03:45:19;15.90;;;13.97;;
11443;SDS011;5778;47.856;12.154;2023-05-20T03:48:12;22.23;;;19.83;;
11443;SDS011;5778;47.856;12.154;2023-05-20T03:50:39;22.30;;;19.50;;
11443;SDS011;5778;47.856;12.154;2023-05-20T03:53:07;19.13;;;15.30;;
11443;SDS011;5778;47.856;12.154;2023-05-20T03:55:38;18.30;;;15.17;;
11443;SDS011;5778;47.856;12.154;2023-05-20T03:58:07;17.63;;;15.83;;
11443;SDS011;5778;47.856;12.154;2023-05-20T04:00:34;18.00;;;16.30;;
11443;SDS011;5778;47.856;12.154;2023-05-20T04:03:01;17.47;;;15.73;;
11443;SDS011;5778;47.856;12.154;2023-05-20T04:05:29;15.93;;;14.40;;
11443;SDS011;5778;47.856;12.154;2023-05-20T04:07:56;16.80;;;14.90;;
11443;SDS011;5778;47.856;12.154;2023-05-20T04:10:25;16.47;;;14.77;;
11443;SDS011;5778;47.856;12.154;2023-05-20T04:12:51;15.70;;;14.10;;
11443;SDS011;5778;47.856;12.154;2023-05-20T04:15:21;15.80;;;14.30;;
11443;SDS011;5778;47.856;12.154;2023-05-20T04:17:54;15.83;;;14.27;;
11443;SDS011;5778;47.856;12.154;2023-05-20T04:20:21;16.00;;;14.40;;
11443;SDS011;5778;47.856;12.154;2023-05-20T04:22:51;15.93;;;14.30;;
11443;SDS011;5778;47.856;12.154;2023-05-20T04:25:18;15.80;;;14.30;;
11443;SDS011;5778;47.856;12.154;2023-05-20T04:27:45;15.93;;;14.33;;
11443;SDS011;5778;47.856;12.154;2023-05-20T04:30:14;16.23;;;14.53;;
11443;SDS011;5778;47.856;12.154;2023-05-20T04:32:44;16.40;;;14.70;;
11443;SDS011;5778;47.856;12.154;2023-05-20T04:35:12;15.23;;;13.83;;
11443;SDS011;5778;47.856;12.154;2023-05-20T04:37:43;16.03;;;14.40;;
11443;SDS011;5778;47.856;12.154;2023-05-20T04:40:12;16.43;;;14.57;;
11443;SDS011;5778;47.856;12.154;2023-05-20T04:42:40;15.63;;;14.07;;
11443;SDS011;5778;47.856;12.154;2023-05-20T04:45:09;16.90;;;14.00;;
11443;SDS011;5778;47.856;12.154;2023-05-20T04:47:36;14.97;;;13.43;;
11443;SDS011;5778;47.856;12.154;2023-05-20T04:50:07;17.53;;;14.47;;
11443;SDS011;5778;47.856;12.154;2023-05-20T04:52:35;15.07;;;12.97;;
11443;SDS011;5778;47.856;12.154;2023-05-20T04:55:04;15.40;;;13.37;;
11443;SDS011;5778;47.856;12.154;2023-05-20T04:57:35;14.00;;;12.60;;
11443;SDS011;5778;47.856;12.154;2023-05-20T05:00:05;14.00;;;12.53;;
11443;SDS011;5778;47.856;12.154;2023-05-20T05:02:33;14.17;;;12.77;;
11443;SDS011;5778;47.856;12.154;2023-05-20T05:05:01;16.33;;;14.20;;
11443;SDS011;5778;47.856;12.154;2023-05-20T05:07:30;15.67;;;13.87;;
11443;SDS011;5778;47.856;12.154;2023-05-20T05:09:57;19.13;;;15.33;;
11443;SDS011;5778;47.856;12.154;2023-05-20T05:12:25;17.07;;;14.83;;
11443;SDS011;5778;47.856;12.154;2023-05-20T05:14:52;18.20;;;15.20;;
11443;SDS011;5778;47.856;12.154;2023-05-20T05:17:19;16.53;;;14.23;;
11443;SDS011;5778;47.856;12.154;2023-05-20T05:19:46;21.83;;;15.70;;
11443;SDS011;5778;47.856;12.154;2023-05-20T05:22:13;18.03;;;14.77;;
11443;SDS011;5778;47.856;12.154;2023-05-20T05:27:30;22.03;;;17.33;;
11443;SDS011;5778;47.856;12.154;2023-05-20T05:29:58;24.17;;;17.47;;
11443;SDS011;5778;47.856;12.154;2023-05-20T05:32:27;31.20;;;20.47;;
11443;SDS011;5778;47.856;12.154;2023-05-20T05:34:57;28.50;;;19.40;;
11443;SDS011;5778;47.856;12.154;2023-05-20T05:37:26;30.60;;;21.00;;
11443;SDS011;5778;47.856;12.154;2023-05-20T05:39:53;28.00;;;20.07;;
11443;SDS011;5778;47.856;12.154;2023-05-20T05:42:22;26.20;;;20.07;;
11443;SDS011;5778;47.856;12.154;2023-05-20T05:44:49;24.33;;;19.27;;
11443;SDS011;5778;47.856;12.154;2023-05-20T05:47:18;24.03;;;18.03;;
11443;SDS011;5778;47.856;12.154;2023-05-20T05:49:46;25.90;;;18.60;;
11443;SDS011;5778;47.856;12.154;2023-05-20T05:52:13;24.77;;;18.83;;
11443;SDS011;5778;47.856;12.154;2023-05-20T05:54:42;23.77;;;19.13;;
11443;SDS011;5778;47.856;12.154;2023-05-20T05:57:08;24.40;;;20.33;;
11443;SDS011;5778;47.856;12.154;2023-05-20T05:59:38;22.03;;;19.70;;
11443;SDS011;5778;47.856;12.154;2023-05-20T06:02:05;23.63;;;19.93;;
11443;SDS011;5778;47.856;12.154;2023-05-20T06:04:37;24.10;;;19.97;;
11443;SDS011;5778;47.856;12.154;2023-05-20T06:07:08;21.33;;;18.90;;
11443;SDS011;5778;47.856;12.154;2023-05-20T06:19:23;21.80;;;18.37;;
11443;SDS011;5778;47.856;12.154;2023-05-20T06:21:57;21.93;;;18.13;;
11443;SDS011;5778;47.856;12.154;2023-05-20T06:24:29;22.37;;;19.13;;
11443;SDS011;5778;47.856;12.154;2023-05-20T06:26:56;20.87;;;18.60;;
11443;SDS011;5778;47.856;12.154;2023-05-20T06:29:23;20.63;;;18.47;;
11443;SDS011;5778;47.856;12.154;2023-05-20T06:31:52;22.13;;;17.90;;
11443;SDS011;5778;47.856;12.154;2023-05-20T06:34:28;20.83;;;18.73;;
11443;SDS011;5778;47.856;12.154;2023-05-20T06:36:55;24.17;;;20.40;;
11443;SDS011;5778;47.856;12.154;2023-05-20T06:39:22;21.37;;;18.83;;
11443;SDS011;5778;47.856;12.154;2023-05-20T06:41:49;20.90;;;18.70;;
11443;SDS011;5778;47.856;12.154;2023-05-20T06:44:31;20.50;;;18.30;;
11443;SDS011;5778;47.856;12.154;2023-05-20T06:47:21;19.60;;;17.50;;
11443;SDS011;5778;47.856;12.154;2023-05-20T06:49:50;20.93;;;18.67;;
11443;SDS011;5778;47.856;12.154;2023-05-20T06:52:19;23.77;;;19.53;;
11443;SDS011;5778;47.856;12.154;2023-05-20T06:54:59;19.77;;;17.73;;
11443;SDS011;5778;47.856;12.154;2023-05-20T06:57:26;23.77;;;19.47;;
11443;SDS011;5778;47.856;12.154;2023-05-20T06:59:53;20.67;;;18.47;;
11443;SDS011;5778;47.856;12.154;2023-05-20T07:02:22;21.63;;;19.10;;
11443;SDS011;5778;47.856;12.154;2023-05-20T07:08:07;21.47;;;19.03;;
11443;SDS011;5778;47.856;12.154;2023-05-20T07:10:35;21.57;;;19.27;;
11443;SDS011;5778;47.856;12.154;2023-05-20T07:13:08;20.77;;;18.67;;
11443;SDS011;5778;47.856;12.154;2023-05-20T07:15:35;22.37;;;19.13;;
11443;SDS011;5778;47.856;12.154;2023-05-20T07:18:05;23.87;;;20.90;;
11443;SDS011;5778;47.856;12.154;2023-05-20T07:20:32;21.77;;;19.53;;
11443;SDS011;5778;47.856;12.154;2023-05-20T07:23:08;22.47;;;20.07;;
11443;SDS011;5778;47.856;12.154;2023-05-20T07:25:40;24.50;;;21.90;;
11443;SDS011;5778;47.856;12.154;2023-05-20T07:28:07;22.57;;;20.03;;
11443;SDS011;5778;47.856;12.154;2023-05-20T07:30:34;21.30;;;19.07;;
11443;SDS011;5778;47.856;12.154;2023-05-20T07:33:29;20.30;;;18.27;;
11443;SDS011;5778;47.856;12.154;2023-05-20T07:35:57;20.20;;;17.80;;
11443;SDS011;5778;47.856;12.154;2023-05-20T07:38:24;22.10;;;18.10;;
11443;SDS011;5778;47.856;12.154;2023-05-20T07:40:58;19.37;;;17.47;;
11443;SDS011;5778;47.856;12.154;2023-05-20T07:43:39;18.30;;;16.40;;
11443;SDS011;5778;47.856;12.154;2023-05-20T07:46:06;19.80;;;17.80;;
11443;SDS011;5778;47.856;12.154;2023-05-20T07:48:34;20.00;;;18.03;;
11443;SDS011;5778;47.856;12.154;2023-05-20T07:51:01;22.03;;;18.20;;
11443;SDS011;5778;47.856;12.154;2023-05-20T07:53:28;17.90;;;16.10;;
11443;SDS011;5778;47.856;12.154;2023-05-20T07:55:55;17.60;;;15.90;;
11443;SDS011;5778;47.856;12.154;2023-05-20T07:58:26;19.60;;;17.50;;
11443;SDS011;5778;47.856;12.154;2023-05-20T08:00:53;18.60;;;16.67;;
11443;SDS011;5778;47.856;12.154;2023-05-20T08:03:20;19.00;;;17.00;;
11443;SDS011;5778;47.856;12.154;2023-05-20T08:06:01;19.67;;;17.10;;
11443;SDS011;5778;47.856;12.154;2023-05-20T08:08:28;17.10;;;15.33;;
11443;SDS011;5778;47.856;12.154;2023-05-20T08:11:01;17.50;;;15.73;;
11443;SDS011;5778;47.856;12.154;2023-05-20T08:13:30;17.73;;;15.93;;
11443;SDS011;5778;47.856;12.154;2023-05-20T08:15:59;18.97;;;16.47;;
11443;SDS011;5778;47.856;12.154;2023-05-20T08:18:28;17.07;;;15.33;;
11443;SDS011;5778;47.856;12.154;2023-05-20T08:20:57;17.77;;;15.97;;
11443;SDS011;5778;47.856;12.154;2023-05-20T08:23:26;16.00;;;14.37;;
11443;SDS011;5778;47.856;12.154;2023-05-20T08:25:53;11.40;;;10.30;;
11443;SDS011;5778;47.856;12.154;2023-05-20T08:28:23;13.80;;;12.37;;
11443;SDS011;5778;47.856;12.154;2023-05-20T08:30:51;10.43;;;9.47;;
11443;SDS011;5778;47.856;12.154;2023-05-20T08:33:18;11.53;;;10.30;;
11443;SDS011;5778;47.856;12.154;2023-05-20T08:35:46;10.57;;;9.67;;
11443;SDS011;5778;47.856;12.154;2023-05-20T08:38:13;10.20;;;9.30;;
11443;SDS011;5778;47.856;12.154;2023-05-20T08:40:42;8.50;;;7.70;;
11443;SDS011;5778;47.856;12.154;2023-05-20T08:43:09;7.80;;;7.10;;
11443;SDS011;5778;47.856;12.154;2023-05-20T08:45:37;7.90;;;7.13;;
11443;SDS011;5778;47.856;12.154;2023-05-20T08:48:09;7.63;;;6.80;;
11443;SDS011;5778;47.856;12.154;2023-05-20T08:50:37;7.13;;;6.53;;
11443;SDS011;5778;47.856;12.154;2023-05-20T08:53:04;7.83;;;7.13;;
11443;SDS011;5778;47.856;12.154;2023-05-20T08:55:34;8.10;;;7.40;;
11443;SDS011;5778;47.856;12.154;2023-05-20T08:58:09;8.17;;;7.37;;
11443;SDS011;5778;47.856;12.154;2023-05-20T09:00:36;7.20;;;6.60;;
11443;SDS011;5778;47.856;12.154;2023-05-20T09:03:03;6.80;;;6.10;;
11443;SDS011;5778;47.856;12.154;2023-05-20T09:05:30;6.50;;;5.90;;
11443;SDS011;5778;47.856;12.154;2023-05-20T09:08:04;6.33;;;5.73;;
11443;SDS011;5778;47.856;12.154;2023-05-20T09:10:32;5.87;;;5.30;;
11443;SDS011;5778;47.856;12.154;2023-05-20T09:13:00;5.83;;;5.33;;
11443;SDS011;5778;47.856;12.154;2023-05-20T09:15:30;10.27;;;9.30;;
11443;SDS011;5778;47.856;12.154;2023-05-20T09:17:58;10.03;;;9.10;;
11443;SDS011;5778;47.856;12.154;2023-05-20T09:20:27;9.70;;;8.80;;
11443;SDS011;5778;47.856;12.154;2023-05-20T09:22:58;7.57;;;6.97;;
11443;SDS011;5778;47.856;12.154;2023-05-20T09:25:26;9.33;;;8.53;;
11443;SDS011;5778;47.856;12.154;2023-05-20T09:27:53;8.47;;;7.67;;
11443;SDS011;5778;47.856;12.154;2023-05-20T09:30:21;8.07;;;7.33;;
11443;SDS011;5778;47.856;12.154;2023-05-20T09:32:53;8.37;;;7.57;;
11443;SDS011;5778;47.856;12.154;2023-05-20T09:35:20;10.33;;;9.43;;
11443;SDS011;5778;47.856;12.154;2023-05-20T09:37:47;8.40;;;7.63;;
11443;SDS011;5778;47.856;12.154;2023-05-20T09:40:18;7.57;;;6.80;;
11443;SDS011;5778;47.856;12.154;2023-05-20T09:42:49;7.73;;;7.13;;
11443;SDS011;5778;47.856;12.154;2023-05-20T09:45:20;8.23;;;7.40;;
11443;SDS011;5778;47.856;12.154;2023-05-20T09:47:49;8.33;;;7.63;;
11443;SDS011;5778;47.856;12.154;2023-05-20T09:50:18;8.07;;;7.30;;
11443;SDS011;5778;47.856;12.154;2023-05-20T09:52:46;7.87;;;7.13;;
11443;SDS011;5778;47.856;12.154;2023-05-20T09:55:14;9.43;;;8.43;;
11443;SDS011;5778;47.856;12.154;2023-05-20T09:57:42;9.37;;;8.37;;
11443;SDS011;5778;47.856;12.154;2023-05-20T10:00:09;8.00;;;7.30;;
11443;SDS011;5778;47.856;12.154;2023-05-20T10:02:41;7.70;;;7.00;;
11443;SDS011;5778;47.856;12.154;2023-05-20T10:05:11;6.87;;;6.27;;
11443;SDS011;5778;47.856;12.154;2023-05-20T10:10:47;5.53;;;5.03;;
11443;SDS011;5778;47.856;12.154;2023-05-20T10:13:20;4.37;;;4.07;;
11443;SDS011;5778;47.856;12.154;2023-05-20T10:16:02;5.73;;;5.30;;
11443;SDS011;5778;47.856;12.154;2023-05-20T10:21:23;3.30;;;2.77;;
11443;SDS011;5778;47.856;12.154;2023-05-20T10:23:52;3.33;;;3.03;;
11443;SDS011;5778;47.856;12.154;2023-05-20T10:26:19;3.40;;;3.20;;
11443;SDS011;5778;47.856;12.154;2023-05-20T10:28:47;2.90;;;2.70;;
11443;SDS011;5778;47.856;12.154;2023-05-20T10:31:15;3.43;;;2.93;;
11443;SDS011;5778;47.856;12.154;2023-05-20T10:33:43;2.83;;;2.63;;
11443;SDS011;5778;47.856;12.154;2023-05-20T10:36:21;3.17;;;2.60;;
11443;SDS011;5778;47.856;12.154;2023-05-20T10:38:53;2.40;;;2.20;;
11443;SDS011;5778;47.856;12.154;2023-05-20T10:41:21;2.70;;;2.50;;
11443;SDS011;5778;47.856;12.154;2023-05-20T10:44:00;2.50;;;2.30;;
11443;SDS011;5778;47.856;12.154;2023-05-20T10:46:27;2.90;;;2.70;;
11443;SDS011;5778;47.856;12.154;2023-05-20T10:48:55;3.00;;;2.80;;
11443;SDS011;5778;47.856;12.154;2023-05-20T10:51:22;2.90;;;2.57;;
11443;SDS011;5778;47.856;12.154;2023-05-20T10:53:52;2.30;;;2.20;;
11443;SDS011;5778;47.856;12.154;2023-05-20T10:56:21;2.70;;;2.50;;
11443;SDS011;5778;47.856;12.154;2023-05-20T10:58:49;2.73;;;2.40;;
11443;SDS011;5778;47.856;12.154;2023-05-20T11:01:18;2.60;;;2.40;;
11443;SDS011;5778;47.856;12.154;2023-05-20T11:03:48;2.70;;;2.50;;
11443;SDS011;5778;47.856;12.154;2023-05-20T11:06:15;3.13;;;2.30;;
11443;SDS011;5778;47.856;12.154;2023-05-20T11:08:43;3.27;;;2.50;;
11443;SDS011;5778;47.856;12.154;2023-05-20T11:11:12;2.57;;;2.30;;
11443;SDS011;5778;47.856;12.154;2023-05-20T11:13:40;2.53;;;2.33;;
11443;SDS011;5778;47.856;12.154;2023-05-20T11:16:07;2.30;;;2.20;;
11443;SDS011;5778;47.856;12.154;2023-05-20T11:18:35;2.50;;;2.20;;
11443;SDS011;5778;47.856;12.154;2023-05-20T11:21:02;2.30;;;2.10;;
11443;SDS011;5778;47.856;12.154;2023-05-20T11:23:29;2.80;;;2.60;;
11443;SDS011;5778;47.856;12.154;2023-05-20T11:25:56;2.93;;;2.27;;
11443;SDS011;5778;47.856;12.154;2023-05-20T11:28:24;2.50;;;2.40;;
11443;SDS011;5778;47.856;12.154;2023-05-20T11:30:51;2.60;;;2.40;;
11443;SDS011;5778;47.856;12.154;2023-05-20T11:33:18;3.97;;;2.40;;
11443;SDS011;5778;47.856;12.154;2023-05-20T11:35:47;3.27;;;2.80;;
11443;SDS011;5778;47.856;12.154;2023-05-20T11:38:15;3.10;;;2.80;;
11443;SDS011;5778;47.856;12.154;2023-05-20T11:40:42;3.30;;;3.00;;
11443;SDS011;5778;47.856;12.154;2023-05-20T11:43:11;4.33;;;3.33;;
11443;SDS011;5778;47.856;12.154;2023-05-20T11:45:41;3.33;;;3.13;;
11443;SDS011;5778;47.856;12.154;2023-05-20T11:48:10;3.20;;;3.00;;
11443;SDS011;5778;47.856;12.154;2023-05-20T11:50:40;3.60;;;3.30;;
11443;SDS011;5778;47.856;12.154;2023-05-20T11:53:09;3.87;;;3.47;;
11443;SDS011;5778;47.856;12.154;2023-05-20T11:55:45;4.10;;;3.70;;
11443;SDS011;5778;47.856;12.154;2023-05-20T11:58:14;4.20;;;3.73;;
11443;SDS011;5778;47.856;12.154;2023-05-20T12:00:44;4.13;;;3.73;;
11443;SDS011;5778;47.856;12.154;2023-05-20T12:03:11;4.13;;;3.80;;
11443;SDS011;5778;47.856;12.154;2023-05-20T12:05:38;3.87;;;3.57;;
11443;SDS011;5778;47.856;12.154;2023-05-20T12:08:05;4.00;;;3.60;;
11443;SDS011;5778;47.856;12.154;2023-05-20T12:10:32;3.97;;;3.57;;
11443;SDS011;5778;47.856;12.154;2023-05-20T12:13:00;3.67;;;3.37;;
11443;SDS011;5778;47.856;12.154;2023-05-20T12:15:27;3.50;;;3.17;;
11443;SDS011;5778;47.856;12.154;2023-05-20T12:17:56;3.63;;;3.40;;
11443;SDS011;5778;47.856;12.154;2023-05-20T12:20:23;3.90;;;3.60;;
11443;SDS011;5778;47.856;12.154;2023-05-20T12:22:50;3.57;;;3.30;;
11443;SDS011;5778;47.856;12.154;2023-05-20T12:25:17;3.57;;;3.37;;
11443;SDS011;5778;47.856;12.154;2023-05-20T12:27:46;4.20;;;3.80;;
11443;SDS011;5778;47.856;12.154;2023-05-20T12:30:15;4.20;;;3.80;;
11443;SDS011;5778;47.856;12.154;2023-05-20T12:32:43;4.50;;;4.10;;
11443;SDS011;5778;47.856;12.154;2023-05-20T12:35:14;4.68;;;3.45;;
11443;SDS011;5778;47.856;12.154;2023-05-20T12:37:42;3.97;;;3.67;;
11443;SDS011;5778;47.856;12.154;2023-05-20T12:40:10;4.20;;;3.50;;
11443;SDS011;5778;47.856;12.154;2023-05-20T12:42:38;4.32;;;3.70;;
11443;SDS011;5778;47.856;12.154;2023-05-20T12:45:06;6.47;;;4.17;;
11443;SDS011;5778;47.856;12.154;2023-05-20T12:47:34;6.37;;;4.00;;
11443;SDS011;5778;47.856;12.154;2023-05-20T12:50:01;6.80;;;3.83;;
11443;SDS011;5778;47.856;12.154;2023-05-20T12:52:30;4.07;;;3.60;;
11443;SDS011;5778;47.856;12.154;2023-05-20T12:54:57;4.10;;;3.77;;
11443;SDS011;5778;47.856;12.154;2023-05-20T12:57:24;3.97;;;3.57;;
11443;SDS011;5778;47.856;12.154;2023-05-20T12:59:52;3.90;;;3.60;;
11443;SDS011;5778;47.856;12.154;2023-05-20T13:02:19;4.50;;;4.03;;
11443;SDS011;5778;47.856;12.154;2023-05-20T13:04:46;4.60;;;4.20;;
11443;SDS011;5778;47.856;12.154;2023-05-20T13:07:13;4.40;;;4.00;;
11443;SDS011;5778;47.856;12.154;2023-05-20T13:09:41;4.33;;;4.03;;
11443;SDS011;5778;47.856;12.154;2023-05-20T13:12:09;3.87;;;3.57;;
11443;SDS011;5778;47.856;12.154;2023-05-20T13:14:36;4.00;;;3.67;;
11443;SDS011;5778;47.856;12.154;2023-05-20T13:17:03;4.17;;;3.73;;
11443;SDS011;5778;47.856;12.154;2023-05-20T13:19:30;3.70;;;3.40;;
11443;SDS011;5778;47.856;12.154;2023-05-20T13:21:57;3.83;;;3.23;;
11443;SDS011;5778;47.856;12.154;2023-05-20T13:24:24;3.87;;;3.57;;
11443;SDS011;5778;47.856;12.154;2023-05-20T13:26:52;5.00;;;3.77;;
11443;SDS011;5778;47.856;12.154;2023-05-20T13:29:20;3.77;;;3.47;;
11443;SDS011;5778;47.856;12.154;2023-05-20T13:31:47;3.90;;;3.00;;
11443;SDS011;5778;47.856;12.154;2023-05-20T13:34:15;3.67;;;3.37;;
11443;SDS011;5778;47.856;12.154;2023-05-20T13:36:42;3.77;;;3.37;;
11443;SDS011;5778;47.856;12.154;2023-05-20T13:39:09;4.83;;;4.20;;
11443;SDS011;5778;47.856;12.154;2023-05-20T13:41:36;3.80;;;3.50;;
11443;SDS011;5778;47.856;12.154;2023-05-20T13:44:04;5.47;;;3.60;;
11443;SDS011;5778;47.856;12.154;2023-05-20T13:46:31;3.80;;;3.33;;
11443;SDS011;5778;47.856;12.154;2023-05-20T13:48:58;5.40;;;3.33;;
11443;SDS011;5778;47.856;12.154;2023-05-20T13:51:25;3.97;;;3.67;;
11443;SDS011;5778;47.856;12.154;2023-05-20T13:53:52;5.60;;;3.90;;
11443;SDS011;5778;47.856;12.154;2023-05-20T13:56:19;4.53;;;3.63;;
11443;SDS011;5778;47.856;12.154;2023-05-20T13:58:45;4.43;;;4.03;;
11443;SDS011;5778;47.856;12.154;2023-05-20T14:01:14;4.00;;;3.70;;
11443;SDS011;5778;47.856;12.154;2023-05-20T14:03:41;3.63;;;3.33;;
11443;SDS011;5778;47.856;12.154;2023-05-20T14:06:07;3.73;;;3.43;;
11443;SDS011;5778;47.856;12.154;2023-05-20T14:08:34;4.73;;;3.43;;
11443;SDS011;5778;47.856;12.154;2023-05-20T14:11:01;3.93;;;3.40;;
11443;SDS011;5778;47.856;12.154;2023-05-20T14:13:28;4.10;;;3.40;;
11443;SDS011;5778;47.856;12.154;2023-05-20T14:15:55;3.63;;;3.33;;
11443;SDS011;5778;47.856;12.154;2023-05-20T14:18:23;4.17;;;3.43;;
11443;SDS011;5778;47.856;12.154;2023-05-20T14:20:50;4.33;;;3.30;;
11443;SDS011;5778;47.856;12.154;2023-05-20T14:23:17;4.60;;;3.40;;
11443;SDS011;5778;47.856;12.154;2023-05-20T14:25:44;3.40;;;3.10;;
11443;SDS011;5778;47.856;12.154;2023-05-20T14:28:10;3.53;;;3.23;;
11443;SDS011;5778;47.856;12.154;2023-05-20T14:30:37;3.60;;;3.30;;
11443;SDS011;5778;47.856;12.154;2023-05-20T14:33:04;3.47;;;3.17;;
11443;SDS011;5778;47.856;12.154;2023-05-20T14:35:33;3.67;;;3.27;;
11443;SDS011;5778;47.856;12.154;2023-05-20T14:38:00;3.77;;;3.47;;
11443;SDS011;5778;47.856;12.154;2023-05-20T14:40:27;3.47;;;3.17;;
11443;SDS011;5778;47.856;12.154;2023-05-20T14:42:53;3.63;;;3.33;;
11443;SDS011;5778;47.856;12.154;2023-05-20T14:45:21;3.53;;;3.30;;
11443;SDS011;5778;47.856;12.154;2023-05-20T14:47:48;3.43;;;3.00;;
11443;SDS011;5778;47.856;12.154;2023-05-20T14:50:14;2.90;;;2.70;;
11443;SDS011;5778;47.856;12.154;2023-05-20T14:52:43;3.50;;;3.20;;
11443;SDS011;5778;47.856;12.154;2023-05-20T14:55:10;4.83;;;3.20;;
11443;SDS011;5778;47.856;12.154;2023-05-20T14:57:37;3.70;;;3.40;;
11443;SDS011;5778;47.856;12.154;2023-05-20T15:00:04;3.87;;;3.53;;
11443;SDS011;5778;47.856;12.154;2023-05-20T15:02:32;3.20;;;2.90;;